createdAt,value
2019-05-25T00:01:55.384Z,8.98
2019-05-25T00:04:24.745Z,8.90
2019-05-25T00:06:53.651Z,8.88
2019-05-25T00:09:22.579Z,8.90
2019-05-25T00:11:51.366Z,9.20
2019-05-25T00:14:20.679Z,9.10
2019-05-25T00:16:49.539Z,9.50
2019-05-25T00:19:18.377Z,10.10
2019-05-25T00:21:47.278Z,9.58
2019-05-25T00:24:16.332Z,9.23
2019-05-25T00:26:45.139Z,9.90
2019-05-25T00:29:13.963Z,9.45
2019-05-25T00:31:42.846Z,9.50
2019-05-25T00:34:11.829Z,9.33
2019-05-25T00:36:40.843Z,9.38
2019-05-25T00:39:09.618Z,9.43
2019-05-25T00:41:38.398Z,9.38
2019-05-25T00:44:07.321Z,9.70
2019-05-25T00:46:36.155Z,9.40
2019-05-25T00:49:05.070Z,9.70
2019-05-25T00:51:33.947Z,9.28
2019-05-25T00:54:02.726Z,9.78
2019-05-25T00:56:31.567Z,9.78
2019-05-25T00:59:00.519Z,10.15
2019-05-25T01:01:29.571Z,10.70
2019-05-25T01:03:58.407Z,10.85
2019-05-25T01:06:28.168Z,10.50
2019-05-25T01:08:56.958Z,10.98
2019-05-25T01:11:25.758Z,10.32
2019-05-25T01:13:54.571Z,10.53
2019-05-25T01:16:23.429Z,10.65
2019-05-25T01:18:52.208Z,10.85
2019-05-25T01:21:21.022Z,10.90
2019-05-25T01:23:49.850Z,10.35
2019-05-25T01:26:18.666Z,11.03
2019-05-25T01:28:47.504Z,10.95
2019-05-25T01:31:16.315Z,10.45
2019-05-25T01:33:45.166Z,10.53
2019-05-25T01:36:13.962Z,10.25
2019-05-25T01:38:42.735Z,10.00
2019-05-25T01:41:11.540Z,9.80
2019-05-25T01:43:40.909Z,10.60
2019-05-25T01:46:09.756Z,11.12
2019-05-25T01:48:38.597Z,11.10
2019-05-25T01:51:07.482Z,10.53
2019-05-25T01:53:36.270Z,10.60
2019-05-25T01:56:05.211Z,10.40
2019-05-25T01:58:34.029Z,10.63
2019-05-25T02:01:03.155Z,10.50
2019-05-25T02:03:31.935Z,9.67
2019-05-25T02:06:00.817Z,9.90
2019-05-25T02:08:29.687Z,10.58
2019-05-25T02:10:58.548Z,10.00
2019-05-25T02:13:27.392Z,9.75
2019-05-25T02:15:56.194Z,10.00
2019-05-25T02:18:25.049Z,9.70
2019-05-25T02:20:53.869Z,9.73
2019-05-25T02:23:22.726Z,10.63
2019-05-25T02:25:51.625Z,10.18
2019-05-25T02:28:20.434Z,10.15
2019-05-25T02:30:49.363Z,10.45
2019-05-25T02:33:18.142Z,10.38
2019-05-25T02:35:47.119Z,11.03
2019-05-25T02:38:16.172Z,10.63
2019-05-25T02:40:44.938Z,10.90
2019-05-25T02:43:13.903Z,10.45
2019-05-25T02:45:43.526Z,10.60
2019-05-25T02:48:12.338Z,10.37
2019-05-25T02:50:41.166Z,10.55
2019-05-25T02:53:09.935Z,10.40
2019-05-25T02:55:38.772Z,11.25
2019-05-25T02:58:07.595Z,10.40
2019-05-25T03:00:36.511Z,11.03
2019-05-25T03:03:05.669Z,11.75
2019-05-25T03:05:34.646Z,10.95
2019-05-25T03:08:03.672Z,11.30
2019-05-25T03:10:33.522Z,11.70
2019-05-25T03:13:03.155Z,11.90
2019-05-25T03:15:32.189Z,12.23
2019-05-25T03:18:01.191Z,11.70
2019-05-25T03:20:30.144Z,11.45
2019-05-25T03:22:59.111Z,11.48
2019-05-25T03:25:27.962Z,11.38
2019-05-25T03:27:56.842Z,10.95
2019-05-25T03:30:33.901Z,10.45
2019-05-25T03:33:08.566Z,10.48
2019-05-25T03:35:37.449Z,10.48
2019-05-25T03:38:06.319Z,10.18
2019-05-25T03:40:35.089Z,10.25
2019-05-25T03:43:04.039Z,10.10
2019-05-25T03:45:33.138Z,9.80
2019-05-25T03:48:02.032Z,10.13
2019-05-25T03:50:30.817Z,10.08
2019-05-25T03:52:59.663Z,10.05
2019-05-25T03:55:28.934Z,10.13
2019-05-25T03:58:04.054Z,10.38
2019-05-25T04:00:35.298Z,10.13
2019-05-25T04:03:04.659Z,10.23
2019-05-25T04:05:33.581Z,10.10
2019-05-25T04:08:02.527Z,9.78
2019-05-25T04:10:31.388Z,9.80
2019-05-25T04:13:00.471Z,9.93
2019-05-25T04:15:29.583Z,10.55
2019-05-25T04:17:58.787Z,10.63
2019-05-25T04:20:27.728Z,10.63
2019-05-25T04:22:56.586Z,10.58
2019-05-25T04:25:25.411Z,10.68
2019-05-25T04:27:54.241Z,10.13
2019-05-25T04:30:23.167Z,9.95
2019-05-25T04:32:51.975Z,9.90
2019-05-25T04:35:20.882Z,9.65
2019-05-25T04:37:49.778Z,9.55
2019-05-25T04:40:18.714Z,9.60
2019-05-25T04:42:47.540Z,9.80
2019-05-25T04:45:16.594Z,9.35
2019-05-25T04:47:46.290Z,9.30
2019-05-25T04:50:15.370Z,8.95
2019-05-25T04:52:44.135Z,9.45
2019-05-25T04:55:13.172Z,8.85
2019-05-25T04:57:41.958Z,9.80
2019-05-25T05:00:11.621Z,9.00
2019-05-25T05:02:41.515Z,9.18
2019-05-25T05:05:10.715Z,9.53
2019-05-25T05:07:39.574Z,9.05
2019-05-25T05:10:08.745Z,9.20
2019-05-25T05:12:37.604Z,9.13
2019-05-25T05:15:06.993Z,8.48
2019-05-25T05:17:36.214Z,8.50
2019-05-25T05:20:07.344Z,8.70
2019-05-25T05:22:36.259Z,8.70
2019-05-25T05:25:08.113Z,9.10
2019-05-25T05:27:37.635Z,7.93
2019-05-25T05:30:07.238Z,8.00
2019-05-25T05:32:36.195Z,8.30
2019-05-25T05:35:06.616Z,7.90
2019-05-25T05:37:36.313Z,7.58
2019-05-25T05:40:06.295Z,7.80
2019-05-25T05:42:37.902Z,8.15
2019-05-25T05:45:07.678Z,7.85
2019-05-25T05:47:36.562Z,8.15
2019-05-25T05:50:07.000Z,7.80
2019-05-25T05:52:38.414Z,7.78
2019-05-25T05:55:09.242Z,7.75
2019-05-25T05:57:38.334Z,7.50
2019-05-25T06:00:07.840Z,7.45
2019-05-25T06:02:36.752Z,7.62
2019-05-25T06:05:06.086Z,7.30
2019-05-25T06:07:34.951Z,7.83
2019-05-25T06:10:06.316Z,7.72
2019-05-25T06:12:36.301Z,7.60
2019-05-25T06:15:06.047Z,7.75
2019-05-25T06:17:34.831Z,7.65
2019-05-25T06:20:04.522Z,7.80
2019-05-25T06:22:33.312Z,7.58
2019-05-25T06:25:02.212Z,7.70
2019-05-25T06:27:30.966Z,7.90
2019-05-25T06:29:59.753Z,7.50
2019-05-25T06:32:28.686Z,7.83
2019-05-25T06:34:57.480Z,7.35
2019-05-25T06:37:26.344Z,7.72
2019-05-25T06:39:55.210Z,7.80
2019-05-25T06:42:24.054Z,7.40
2019-05-25T06:44:52.814Z,7.17
2019-05-25T06:47:21.708Z,7.53
2019-05-25T06:49:50.481Z,6.80
2019-05-25T06:52:19.262Z,6.90
2019-05-25T06:54:48.066Z,7.12
2019-05-25T06:57:16.826Z,7.60
2019-05-25T06:59:45.938Z,7.17
2019-05-25T07:02:15.086Z,7.35
2019-05-25T07:04:43.865Z,7.15
2019-05-25T07:07:12.702Z,7.22
2019-05-25T07:09:41.650Z,7.20
2019-05-25T07:12:10.485Z,7.17
2019-05-25T07:14:39.315Z,7.30
2019-05-25T07:17:08.098Z,6.60
2019-05-25T07:19:36.863Z,7.33
2019-05-25T07:22:05.790Z,7.40
2019-05-25T07:24:34.563Z,6.80
2019-05-25T07:27:03.400Z,6.67
2019-05-25T07:29:32.253Z,6.83
2019-05-25T07:32:01.124Z,6.90
2019-05-25T07:34:29.913Z,7.12
2019-05-25T07:36:58.686Z,6.72
2019-05-25T07:39:27.868Z,6.50
2019-05-25T07:41:56.637Z,6.53
2019-05-25T07:44:25.504Z,6.67
2019-05-25T07:46:54.275Z,6.45
2019-05-25T07:49:23.182Z,6.80
2019-05-25T07:51:51.977Z,6.70
2019-05-25T07:54:20.762Z,7.00
2019-05-25T07:56:49.866Z,5.92
2019-05-25T07:59:18.637Z,6.00
2019-05-25T08:01:47.419Z,5.80
2019-05-25T08:04:16.438Z,5.78
2019-05-25T08:06:45.295Z,5.60
2019-05-25T08:09:14.335Z,5.45
2019-05-25T08:11:43.095Z,5.35
2019-05-25T08:14:11.875Z,5.53
2019-05-25T08:16:40.684Z,5.60
2019-05-25T08:19:09.498Z,5.53
2019-05-25T08:21:38.534Z,5.53
2019-05-25T08:24:07.462Z,5.30
2019-05-25T08:26:36.311Z,5.50
2019-05-25T08:29:05.150Z,5.70
2019-05-25T08:31:33.922Z,6.17
2019-05-25T08:34:02.762Z,6.12
2019-05-25T08:36:31.912Z,6.10
2019-05-25T08:39:00.739Z,5.40
2019-05-25T08:41:29.516Z,6.05
2019-05-25T08:43:58.318Z,6.20
2019-05-25T08:46:27.086Z,5.20
2019-05-25T08:48:55.863Z,5.70
2019-05-25T08:51:24.743Z,5.50
2019-05-25T08:53:53.708Z,6.15
2019-05-25T08:56:22.551Z,5.20
2019-05-25T08:58:55.354Z,5.30
2019-05-25T09:01:22.306Z,5.53
2019-05-25T09:03:51.139Z,5.40
2019-05-25T09:06:20.046Z,5.45
2019-05-25T09:08:48.826Z,4.97
2019-05-25T09:11:17.799Z,4.70
2019-05-25T09:13:46.542Z,5.22
2019-05-25T09:16:15.330Z,4.65
2019-05-25T09:18:44.134Z,5.10
2019-05-25T09:21:12.983Z,4.83
2019-05-25T09:23:42.014Z,4.22
2019-05-25T09:26:13.368Z,4.00
2019-05-25T09:28:41.371Z,4.22
2019-05-25T09:31:10.231Z,4.00
2019-05-25T09:33:38.975Z,3.60
2019-05-25T09:36:07.807Z,3.98
2019-05-25T09:38:36.598Z,4.03
2019-05-25T09:41:05.450Z,4.00
2019-05-25T09:43:34.211Z,3.83
2019-05-25T09:46:03.413Z,3.20
2019-05-25T09:48:32.330Z,3.65
2019-05-25T09:51:01.111Z,3.55
2019-05-25T09:53:29.895Z,3.58
2019-05-25T09:55:58.655Z,3.40
2019-05-25T09:58:27.427Z,3.20
2019-05-25T10:00:56.295Z,3.30
2019-05-25T10:03:25.149Z,3.47
2019-05-25T10:05:53.962Z,3.10
2019-05-25T10:08:22.804Z,3.22
2019-05-25T10:10:51.656Z,3.30
2019-05-25T10:13:20.430Z,3.15
2019-05-25T10:15:49.274Z,3.20
2019-05-25T10:18:18.150Z,3.08
2019-05-25T10:20:46.958Z,3.40
2019-05-25T10:23:15.713Z,3.60
2019-05-25T10:25:44.601Z,3.90
2019-05-25T10:28:13.599Z,3.83
2019-05-25T10:30:42.499Z,3.37
2019-05-25T10:33:11.275Z,3.83
2019-05-25T10:35:40.056Z,3.77
2019-05-25T10:38:08.846Z,3.87
2019-05-25T10:40:37.622Z,3.52
2019-05-25T10:43:06.520Z,3.70
2019-05-25T10:45:35.292Z,3.50
2019-05-25T10:48:04.235Z,3.50
2019-05-25T10:50:33.110Z,3.50
2019-05-25T10:53:02.213Z,3.80
2019-05-25T10:55:31.106Z,3.27
2019-05-25T10:58:00.095Z,3.60
2019-05-25T11:00:29.074Z,3.40
2019-05-25T11:02:57.861Z,3.37
2019-05-25T11:05:26.822Z,3.42
2019-05-25T11:07:55.930Z,3.60
2019-05-25T11:10:24.889Z,3.87
2019-05-25T11:12:53.647Z,3.55
2019-05-25T11:15:22.575Z,3.20
2019-05-25T11:17:51.426Z,3.67
2019-05-25T11:20:20.472Z,3.60
2019-05-25T11:22:49.313Z,3.40
2019-05-25T11:25:18.435Z,3.52
2019-05-25T11:27:47.303Z,3.30
2019-05-25T11:30:17.017Z,3.70
2019-05-25T11:32:45.805Z,3.60
2019-05-25T11:35:15.023Z,3.50
2019-05-25T11:37:43.794Z,3.30
2019-05-25T11:40:12.903Z,3.35
2019-05-25T11:42:41.838Z,3.87
2019-05-25T11:45:11.702Z,3.70
2019-05-25T11:47:40.483Z,3.50
2019-05-25T11:50:10.229Z,3.10
2019-05-25T11:52:39.175Z,3.20
2019-05-25T11:55:08.894Z,3.30
2019-05-25T11:57:37.841Z,3.17
2019-05-25T12:00:07.510Z,3.30
2019-05-25T12:02:36.298Z,3.10
2019-05-25T12:05:06.247Z,2.98
2019-05-25T12:07:35.046Z,3.10
2019-05-25T12:10:04.033Z,3.40
2019-05-25T12:12:32.870Z,3.20
2019-05-25T12:15:01.788Z,3.02
2019-05-25T12:17:30.690Z,3.37
2019-05-25T12:19:59.442Z,3.67
2019-05-25T12:22:28.586Z,3.70
2019-05-25T12:24:57.396Z,3.60
2019-05-25T12:27:26.202Z,3.52
2019-05-25T12:29:55.075Z,3.75
2019-05-25T12:32:23.846Z,3.90
2019-05-25T12:34:52.719Z,3.80
2019-05-25T12:37:21.775Z,2.92
2019-05-25T12:39:50.539Z,2.50
2019-05-25T12:42:19.742Z,2.30
2019-05-25T12:44:48.590Z,2.60
2019-05-25T12:47:17.402Z,2.30
2019-05-25T12:49:50.607Z,2.35
2019-05-25T12:52:16.673Z,2.30
2019-05-25T12:54:46.581Z,2.37
2019-05-25T12:57:15.436Z,2.60
2019-05-25T12:59:44.297Z,2.50
2019-05-25T13:02:13.081Z,2.80
2019-05-25T13:04:41.852Z,2.85
2019-05-25T13:07:10.710Z,3.02
2019-05-25T13:09:39.570Z,3.05
2019-05-25T13:12:08.712Z,3.20
2019-05-25T13:14:37.558Z,3.00
2019-05-25T13:17:06.302Z,3.20
2019-05-25T13:19:35.255Z,3.62
2019-05-25T13:22:04.235Z,3.50
2019-05-25T13:24:33.151Z,3.55
2019-05-25T13:27:02.013Z,3.40
2019-05-25T13:29:30.762Z,3.12
2019-05-25T13:31:59.539Z,3.08
2019-05-25T13:34:28.320Z,2.90
2019-05-25T13:36:57.119Z,2.90
2019-05-25T13:39:25.890Z,2.77
2019-05-25T13:41:54.646Z,2.70
2019-05-25T13:44:23.546Z,2.40
2019-05-25T13:46:52.381Z,2.42
2019-05-25T13:49:21.234Z,2.40
2019-05-25T13:51:50.141Z,2.20
2019-05-25T13:54:19.239Z,2.20
2019-05-25T13:56:48.015Z,2.03
2019-05-25T13:59:16.962Z,2.27
2019-05-25T14:01:46.078Z,2.15
2019-05-25T14:04:14.941Z,2.90
2019-05-25T14:06:43.767Z,3.10
2019-05-25T14:09:15.862Z,3.70
2019-05-25T14:11:43.397Z,3.35
2019-05-25T14:14:12.608Z,3.80
2019-05-25T14:16:41.462Z,3.70
2019-05-25T14:19:10.233Z,3.77
2019-05-25T14:21:39.422Z,3.75
2019-05-25T14:24:08.225Z,3.77
2019-05-25T14:26:37.050Z,3.60
2019-05-25T14:29:05.903Z,3.42
2019-05-25T14:31:45.142Z,3.22
2019-05-25T14:34:05.282Z,3.45
2019-05-25T14:36:34.134Z,3.77
2019-05-25T14:39:03.071Z,4.00
2019-05-25T14:41:31.812Z,3.95
2019-05-25T14:44:00.567Z,4.30
2019-05-25T14:46:29.420Z,4.00
2019-05-25T14:48:58.932Z,4.30
2019-05-25T14:51:27.699Z,4.10
2019-05-25T14:53:56.463Z,4.20
2019-05-25T14:56:25.233Z,3.90
2019-05-25T14:58:54.009Z,3.80
2019-05-25T15:01:22.822Z,3.20
2019-05-25T15:03:51.630Z,3.20
2019-05-25T15:06:21.130Z,3.33
2019-05-25T15:08:50.307Z,3.20
2019-05-25T15:11:19.134Z,3.70
2019-05-25T15:13:47.902Z,3.52
2019-05-25T15:16:16.822Z,3.60
2019-05-25T15:18:45.787Z,3.02
2019-05-25T15:21:14.561Z,3.00
2019-05-25T15:23:43.714Z,2.85
2019-05-25T15:26:12.492Z,2.58
2019-05-25T15:28:41.358Z,2.42
2019-05-25T15:31:10.269Z,2.20
2019-05-25T15:33:39.118Z,2.40
2019-05-25T15:36:08.052Z,2.20
2019-05-25T15:38:36.884Z,2.30
2019-05-25T15:41:05.777Z,2.20
2019-05-25T15:43:34.553Z,3.45
2019-05-25T15:46:03.464Z,4.25
2019-05-25T15:48:32.349Z,5.03
2019-05-25T15:51:01.202Z,3.45
2019-05-25T15:53:30.066Z,3.40
2019-05-25T15:55:59.027Z,3.10
2019-05-25T15:58:27.887Z,2.95
2019-05-25T16:00:56.719Z,3.30
2019-05-25T16:03:25.472Z,3.22
2019-05-25T16:05:54.261Z,3.30
2019-05-25T16:08:23.224Z,2.60
2019-05-25T16:10:52.212Z,2.70
2019-05-25T16:13:21.178Z,2.83
2019-05-25T16:15:49.972Z,2.65
2019-05-25T16:18:19.059Z,2.72
2019-05-25T16:20:47.834Z,2.40
2019-05-25T16:23:16.593Z,2.42
2019-05-25T16:25:45.354Z,2.60
2019-05-25T16:28:14.123Z,2.60
2019-05-25T16:30:42.999Z,2.30
2019-05-25T16:33:13.990Z,2.80
2019-05-25T16:35:42.335Z,2.85
2019-05-25T16:38:11.367Z,2.90
2019-05-25T16:40:40.343Z,3.27
2019-05-25T16:43:09.249Z,3.00
2019-05-25T16:45:38.032Z,3.60
2019-05-25T16:48:06.874Z,3.12
2019-05-25T16:50:35.667Z,3.30
2019-05-25T16:53:04.610Z,3.60
2019-05-25T16:55:33.394Z,3.50
2019-05-25T16:58:02.207Z,3.20
2019-05-25T17:00:31.067Z,3.40
2019-05-25T17:03:00.191Z,3.58
2019-05-25T17:05:29.153Z,3.47
2019-05-25T17:07:58.529Z,3.80
2019-05-25T17:10:27.470Z,3.37
2019-05-25T17:12:56.609Z,3.40
2019-05-25T17:15:25.379Z,3.30
2019-05-25T17:17:54.197Z,3.12
2019-05-25T17:20:23.047Z,3.62
2019-05-25T17:22:51.983Z,3.12
2019-05-25T17:25:20.911Z,3.42
2019-05-25T17:27:49.666Z,3.40
2019-05-25T17:30:32.270Z,3.30
2019-05-25T17:33:01.099Z,3.30
2019-05-25T17:35:29.927Z,3.30
2019-05-25T17:37:58.782Z,3.10
2019-05-25T17:40:27.606Z,3.35
2019-05-25T17:42:56.489Z,3.40
2019-05-25T17:45:25.254Z,3.47
2019-05-25T17:47:54.019Z,3.75
2019-05-25T17:50:22.939Z,3.70
2019-05-25T17:52:51.702Z,3.80
2019-05-25T17:55:21.602Z,3.50
2019-05-25T17:57:50.446Z,3.50
2019-05-25T18:00:38.545Z,3.58
2019-05-25T18:03:07.519Z,3.58
2019-05-25T18:05:36.722Z,3.60
2019-05-25T18:08:06.941Z,3.60
2019-05-25T18:10:51.134Z,3.80
2019-05-25T18:13:09.792Z,3.42
2019-05-25T18:15:38.695Z,3.47
2019-05-25T18:18:07.834Z,3.65
2019-05-25T18:20:36.774Z,3.72
2019-05-25T18:23:05.903Z,3.72
2019-05-25T18:25:34.752Z,3.80
2019-05-25T18:28:03.859Z,3.70
2019-05-25T18:30:33.696Z,3.75
2019-05-25T18:33:02.469Z,4.00
2019-05-25T18:35:31.283Z,3.95
2019-05-25T18:38:00.123Z,3.80
2019-05-25T18:40:29.015Z,3.70
2019-05-25T18:42:58.072Z,3.80
2019-05-25T18:45:26.914Z,3.72
2019-05-25T18:47:55.744Z,3.92
2019-05-25T18:50:24.670Z,3.55
2019-05-25T18:52:53.530Z,4.00
2019-05-25T18:55:22.657Z,4.00
2019-05-25T18:57:51.690Z,4.08
2019-05-25T19:00:20.913Z,4.20
2019-05-25T19:02:49.750Z,4.23
2019-05-25T19:05:20.162Z,4.30
2019-05-25T19:07:49.119Z,4.10
2019-05-25T19:10:18.145Z,4.40
2019-05-25T19:12:46.947Z,4.62
2019-05-25T19:15:17.254Z,4.50
2019-05-25T19:17:46.012Z,4.75
2019-05-25T19:20:20.657Z,4.30
2019-05-25T19:22:45.839Z,4.60
2019-05-25T19:25:14.938Z,4.75
2019-05-25T19:27:43.759Z,4.80
2019-05-25T19:30:12.994Z,4.70
2019-05-25T19:32:41.930Z,4.78
2019-05-25T19:35:11.282Z,4.83
2019-05-25T19:37:42.407Z,5.00
2019-05-25T19:40:11.471Z,4.50
2019-05-25T19:42:40.378Z,4.87
2019-05-25T19:45:09.469Z,4.80
2019-05-25T19:47:38.383Z,4.92
2019-05-25T19:50:07.920Z,4.60
2019-05-25T19:52:36.866Z,4.80
2019-05-25T19:55:06.195Z,4.80
2019-05-25T19:57:35.138Z,4.95
2019-05-25T20:00:05.339Z,5.58
2019-05-25T20:02:34.259Z,5.30
2019-05-25T20:05:15.818Z,5.12
2019-05-25T20:07:34.059Z,5.53
2019-05-25T20:10:02.913Z,5.70
2019-05-25T20:12:31.674Z,5.70
2019-05-25T20:15:00.477Z,6.07
2019-05-25T20:17:29.230Z,5.83
2019-05-25T20:19:58.039Z,6.20
2019-05-25T20:22:26.943Z,5.65
2019-05-25T20:24:55.703Z,5.58
2019-05-25T20:27:24.570Z,5.83
2019-05-25T20:29:53.425Z,5.70
2019-05-25T20:32:22.215Z,5.70
2019-05-25T20:34:51.364Z,5.40
2019-05-25T20:37:20.219Z,5.70
2019-05-25T20:39:49.211Z,5.70
2019-05-25T20:42:18.100Z,5.70
2019-05-25T20:44:47.796Z,5.78
2019-05-25T20:47:16.940Z,5.72
2019-05-25T20:49:45.728Z,5.85
2019-05-25T20:52:15.429Z,5.70
2019-05-25T20:54:44.795Z,5.62
2019-05-25T20:57:13.650Z,6.12
2019-05-25T20:59:42.598Z,5.77
2019-05-25T21:02:11.397Z,5.65
2019-05-25T21:04:40.207Z,5.70
2019-05-25T21:07:09.102Z,5.50
2019-05-25T21:09:38.236Z,6.10
2019-05-25T21:12:07.273Z,6.00
2019-05-25T21:14:36.166Z,5.60
2019-05-25T21:17:05.125Z,5.40
2019-05-25T21:19:34.252Z,5.70
2019-05-25T21:22:03.178Z,5.72
2019-05-25T21:24:32.032Z,5.97
2019-05-25T21:27:00.947Z,5.70
2019-05-25T21:29:29.794Z,6.00
2019-05-25T21:31:59.013Z,6.30
2019-05-25T21:34:28.515Z,6.08
2019-05-25T21:36:57.339Z,6.47
2019-05-25T21:39:26.131Z,6.20
2019-05-25T21:41:54.949Z,6.62
2019-05-25T21:44:24.152Z,6.55
2019-05-25T21:46:53.259Z,6.05
2019-05-25T21:49:22.097Z,5.57
2019-05-25T21:51:51.002Z,5.58
2019-05-25T21:54:19.936Z,5.20
2019-05-25T21:56:48.750Z,5.45
2019-05-25T21:59:17.633Z,5.03
2019-05-25T22:01:46.646Z,5.15
2019-05-25T22:04:15.521Z,5.37
2019-05-25T22:06:44.359Z,5.33
2019-05-25T22:09:13.267Z,5.25
2019-05-25T22:11:42.114Z,5.00
2019-05-25T22:14:11.243Z,5.45
2019-05-25T22:16:40.135Z,5.12
2019-05-25T22:19:08.971Z,5.00
2019-05-25T22:21:37.853Z,5.62
2019-05-25T22:24:06.659Z,5.63
2019-05-25T22:26:36.327Z,5.60
2019-05-25T22:29:05.207Z,5.47
2019-05-25T22:31:34.131Z,5.30
2019-05-25T22:34:03.004Z,5.33
2019-05-25T22:36:40.171Z,5.47
2019-05-25T22:39:02.472Z,5.10
2019-05-25T22:41:31.259Z,5.20
2019-05-25T22:44:00.588Z,5.47
2019-05-25T22:46:29.496Z,5.10
2019-05-25T22:48:58.562Z,5.13
2019-05-25T22:51:27.447Z,5.00
2019-05-25T22:53:56.383Z,5.15
2019-05-25T22:56:25.183Z,5.30
2019-05-25T22:58:53.966Z,5.60
2019-05-25T23:01:23.021Z,5.20
2019-05-25T23:03:51.863Z,5.58
2019-05-25T23:06:20.662Z,5.55
2019-05-25T23:08:49.539Z,5.50
2019-05-25T23:11:18.409Z,5.37
2019-05-25T23:13:47.185Z,5.50
2019-05-25T23:16:16.193Z,5.58
2019-05-25T23:18:45.063Z,5.53
2019-05-25T23:21:13.932Z,5.87
2019-05-25T23:23:42.833Z,5.53
2019-05-25T23:26:11.691Z,5.60
2019-05-25T23:28:40.475Z,5.55
2019-05-25T23:31:09.355Z,5.20
2019-05-25T23:33:38.339Z,5.75
2019-05-25T23:36:07.235Z,5.37
2019-05-25T23:38:36.423Z,5.62
2019-05-25T23:41:05.366Z,5.60
2019-05-25T23:43:34.203Z,5.80
2019-05-25T23:46:03.113Z,5.53
2019-05-25T23:48:31.963Z,5.47
2019-05-25T23:51:01.074Z,5.50
2019-05-25T23:53:29.979Z,5.55
2019-05-25T23:55:58.771Z,5.25
2019-05-25T23:58:27.595Z,5.58
